createdAt,value
2023-05-05T00:02:23.557Z,1.1
2023-05-05T00:03:33.223Z,1.5
2023-05-05T00:04:42.848Z,1.2
2023-05-05T00:05:50.538Z,1.7
2023-05-05T00:07:00.267Z,1.3
2023-05-05T00:08:08.989Z,1.3
2023-05-05T00:09:17.675Z,1.3
2023-05-05T00:10:27.378Z,1.3
2023-05-05T00:11:36.123Z,1.1
2023-05-05T00:12:45.879Z,1
2023-05-05T00:13:54.569Z,0.9
2023-05-05T00:15:03.252Z,1.2
2023-05-05T00:16:12.977Z,1
2023-05-05T00:17:20.781Z,1.3
2023-05-05T00:18:30.475Z,1.2
2023-05-05T00:19:40.227Z,1.3
2023-05-05T00:20:47.924Z,1.2
2023-05-05T00:21:57.612Z,1.7
2023-05-05T00:23:07.296Z,1.1
2023-05-05T00:24:15.042Z,1.4
2023-05-05T00:25:24.707Z,1.4
2023-05-05T00:26:32.411Z,1.1
2023-05-05T00:27:42.134Z,1.2
2023-05-05T00:28:51.803Z,1.5
2023-05-05T00:30:00.548Z,1.4
2023-05-05T00:31:10.237Z,1
2023-05-05T00:32:17.902Z,1.3
2023-05-05T00:33:27.548Z,1
2023-05-05T00:34:37.304Z,1.5
2023-05-05T00:35:46.974Z,1.2
2023-05-05T00:36:56.650Z,1.3
2023-05-05T00:38:05.350Z,1
2023-05-05T00:39:15.055Z,1.2
2023-05-05T00:40:24.783Z,1.1
2023-05-05T00:41:32.477Z,1
2023-05-05T00:42:42.219Z,1.2
2023-05-05T00:43:51.895Z,1.4
2023-05-05T00:45:00.574Z,2.4
2023-05-05T00:46:10.315Z,4.9
2023-05-05T00:47:19.005Z,4.9
2023-05-05T00:48:28.886Z,2.8
2023-05-05T00:49:37.696Z,1.4
2023-05-05T00:50:46.385Z,1.4
2023-05-05T00:51:56.064Z,1
2023-05-05T00:53:04.759Z,1.4
2023-05-05T00:54:12.476Z,1.3
2023-05-05T00:55:22.254Z,1.2
2023-05-05T00:56:30.938Z,1.1
2023-05-05T00:57:39.626Z,1.1
2023-05-05T00:58:49.336Z,1
2023-05-05T00:59:59.032Z,1.4
2023-05-05T01:01:08.719Z,1.4
2023-05-05T01:02:17.370Z,1.4
2023-05-05T01:03:25.207Z,1.5
2023-05-05T01:04:34.832Z,1.1
2023-05-05T01:05:43.515Z,1.5
2023-05-05T01:06:52.244Z,0.9
2023-05-05T01:08:01.876Z,0.9
2023-05-05T01:09:10.694Z,1
2023-05-05T01:10:20.939Z,1.3
2023-05-05T01:11:28.995Z,1.5
2023-05-05T01:12:36.702Z,1.1
2023-05-05T01:13:46.450Z,1.3
2023-05-05T01:14:54.080Z,1.4
2023-05-05T01:16:02.765Z,0.9
2023-05-05T01:17:12.548Z,1.3
2023-05-05T01:18:20.240Z,1.5
2023-05-05T01:19:29.925Z,1.3
2023-05-05T01:20:38.630Z,1.5
2023-05-05T01:21:46.317Z,1.5
2023-05-05T01:22:56.044Z,1.7
2023-05-05T01:24:05.753Z,1.1
2023-05-05T01:25:14.482Z,1.3
2023-05-05T01:26:24.144Z,1.4
2023-05-05T01:27:33.856Z,1.4
2023-05-05T01:28:43.511Z,1
2023-05-05T01:29:52.185Z,1.3
2023-05-05T01:31:00.862Z,1.3
2023-05-05T01:32:10.569Z,1.6
2023-05-05T01:33:19.269Z,1.4
2023-05-05T01:34:27.957Z,1.2
2023-05-05T01:35:37.662Z,1.5
2023-05-05T01:36:47.366Z,1.8
2023-05-05T01:37:57.091Z,1.5
2023-05-05T01:39:06.803Z,1.2
2023-05-05T01:40:16.469Z,1.2
2023-05-05T01:41:26.151Z,1.2
2023-05-05T01:42:33.896Z,1.1
2023-05-05T01:43:41.601Z,1.2
2023-05-05T01:44:51.245Z,1.2
2023-05-05T01:45:58.963Z,1.2
2023-05-05T01:47:08.683Z,1.4
2023-05-05T01:48:17.341Z,1.4
2023-05-05T01:49:26.043Z,1.2
2023-05-05T01:50:35.730Z,1.1
2023-05-05T01:51:44.464Z,1.4
2023-05-05T01:52:53.150Z,1.5
2023-05-05T01:54:02.833Z,1.6
2023-05-05T01:55:10.510Z,2
2023-05-05T01:56:20.229Z,1.5
2023-05-05T01:57:27.888Z,1.6
2023-05-05T01:58:35.625Z,1.7
2023-05-05T01:59:45.268Z,1.4
2023-05-05T02:00:53.068Z,1.9
2023-05-05T02:02:01.760Z,1.9
2023-05-05T02:03:11.588Z,1.6
2023-05-05T02:04:19.149Z,2
2023-05-05T02:05:28.871Z,1.4
2023-05-05T02:06:37.615Z,1.8
2023-05-05T02:07:45.269Z,1.6
2023-05-05T02:08:54.998Z,1.6
2023-05-05T02:10:01.688Z,2
2023-05-05T02:11:11.380Z,3
2023-05-05T02:12:21.034Z,1.1
2023-05-05T02:13:28.716Z,1.9
2023-05-05T02:14:38.460Z,1.8
2023-05-05T02:15:47.160Z,2.3
2023-05-05T02:16:54.898Z,2
2023-05-05T02:18:04.615Z,2.1
2023-05-05T02:19:13.272Z,2
2023-05-05T02:20:23.023Z,1.5
2023-05-05T02:21:32.680Z,2.1
2023-05-05T02:22:40.406Z,1.9
2023-05-05T02:23:50.176Z,1.5
2023-05-05T02:24:58.923Z,1.6
2023-05-05T02:26:07.592Z,1.9
2023-05-05T02:27:16.326Z,1.6
2023-05-05T02:28:25.983Z,1.6
2023-05-05T02:29:35.781Z,1.3
2023-05-05T02:30:44.490Z,1.6
2023-05-05T02:31:53.208Z,1.3
2023-05-05T02:33:03.003Z,1.3
2023-05-05T02:34:10.691Z,1.5
2023-05-05T02:35:20.382Z,1.2
2023-05-05T02:36:29.032Z,1.3
2023-05-05T02:37:36.690Z,1.6
2023-05-05T02:38:46.415Z,1.5
2023-05-05T02:39:54.093Z,1.5
2023-05-05T02:41:02.743Z,1.5
2023-05-05T02:42:12.428Z,1.4
2023-05-05T02:43:20.188Z,1.3
2023-05-05T02:44:29.832Z,1.1
2023-05-05T02:45:39.592Z,1.2
2023-05-05T02:46:48.270Z,1.2
2023-05-05T02:47:58.014Z,1.4
2023-05-05T02:49:06.622Z,1.5
2023-05-05T02:50:16.305Z,1.3
2023-05-05T02:51:25.970Z,1.4
2023-05-05T02:52:35.684Z,1.4
2023-05-05T02:53:45.342Z,1.5
2023-05-05T02:54:54.007Z,1.4
2023-05-05T02:56:01.675Z,1.5
2023-05-05T02:57:10.426Z,1.8
2023-05-05T02:58:18.137Z,1.5
2023-05-05T02:59:26.843Z,1.4
2023-05-05T03:00:36.485Z,1.3
2023-05-05T03:01:45.277Z,1.5
2023-05-05T03:02:55.051Z,1.7
2023-05-05T03:04:04.630Z,1.6
2023-05-05T03:05:13.357Z,1.9
2023-05-05T03:06:22.115Z,1.9
2023-05-05T03:07:29.798Z,1.3
2023-05-05T03:08:38.499Z,1.4
2023-05-05T03:09:48.203Z,1.4
2023-05-05T03:10:56.980Z,1.5
2023-05-05T03:12:06.653Z,1.4
2023-05-05T03:13:15.335Z,1.4
2023-05-05T03:14:24.021Z,0.9
2023-05-05T03:15:33.888Z,1.1
2023-05-05T03:16:43.511Z,1.1
2023-05-05T03:17:53.176Z,1.1
2023-05-05T03:19:01.841Z,1.2
2023-05-05T03:20:09.617Z,1.3
2023-05-05T03:21:19.261Z,1.7
2023-05-05T03:22:27.924Z,1
2023-05-05T03:23:35.792Z,1.5
2023-05-05T03:24:45.503Z,1.1
2023-05-05T03:25:53.220Z,1.4
2023-05-05T03:27:02.949Z,1.1
2023-05-05T03:28:12.626Z,1.2
2023-05-05T03:29:20.494Z,1.1
2023-05-05T03:30:29.215Z,1.2
2023-05-05T03:31:37.954Z,0.9
2023-05-05T03:32:47.604Z,1.4
2023-05-05T03:33:57.328Z,0.8
2023-05-05T03:35:06.050Z,1.5
2023-05-05T03:36:14.738Z,1.3
2023-05-05T03:37:24.393Z,1.4
2023-05-05T03:38:33.129Z,1.2
2023-05-05T03:39:42.843Z,1.1
2023-05-05T03:40:51.486Z,1.4
2023-05-05T03:42:00.173Z,1
2023-05-05T03:43:09.905Z,1.5
2023-05-05T03:44:18.663Z,1.9
2023-05-05T03:45:28.310Z,1.7
2023-05-05T03:46:38.008Z,1.9
2023-05-05T03:47:45.764Z,1.2
2023-05-05T03:48:55.469Z,1.8
2023-05-05T03:50:04.209Z,2
2023-05-05T03:51:12.934Z,1.3
2023-05-05T03:52:22.623Z,1.6
2023-05-05T03:53:30.351Z,1.5
2023-05-05T03:54:39.093Z,1.8
2023-05-05T03:55:48.775Z,1.3
2023-05-05T03:56:56.492Z,1.6
2023-05-05T03:58:06.231Z,1.1
2023-05-05T03:59:15.890Z,1.4
2023-05-05T04:00:23.648Z,1.3
2023-05-05T04:01:33.460Z,1.1
2023-05-05T04:02:42.243Z,0.9
2023-05-05T04:03:51.002Z,1
2023-05-05T04:05:00.613Z,1.1
2023-05-05T04:06:09.514Z,1.2
2023-05-05T04:07:19.222Z,1
2023-05-05T04:08:27.898Z,1.1
2023-05-05T04:09:36.601Z,1.4
2023-05-05T04:10:46.327Z,1.5
2023-05-05T04:11:54.976Z,1.5
2023-05-05T04:13:04.726Z,1.6
2023-05-05T04:14:14.344Z,1.7
2023-05-05T04:15:23.043Z,1.5
2023-05-05T04:16:32.786Z,1.5
2023-05-05T04:17:42.464Z,1.3
2023-05-05T04:18:51.216Z,1.2
2023-05-05T04:20:00.899Z,1.2
2023-05-05T04:21:10.607Z,1.6
2023-05-05T04:22:20.352Z,1.9
2023-05-05T04:23:30.032Z,1.6
2023-05-05T04:24:38.802Z,1.4
2023-05-05T04:25:48.643Z,1.3
2023-05-05T04:26:57.326Z,1.1
2023-05-05T04:28:07.005Z,1.5
2023-05-05T04:29:16.690Z,1.4
2023-05-05T04:30:24.384Z,1.2
2023-05-05T04:31:34.112Z,1.4
2023-05-05T04:32:41.744Z,1.4
2023-05-05T04:33:50.373Z,1.6
2023-05-05T04:35:00.104Z,1.2
2023-05-05T04:36:08.843Z,1.5
2023-05-05T04:37:18.571Z,1.2
2023-05-05T04:38:27.237Z,1.2
2023-05-05T04:39:36.023Z,1.2
2023-05-05T04:40:45.755Z,1.2
2023-05-05T04:41:53.433Z,0.9
2023-05-05T04:43:02.212Z,1.2
2023-05-05T04:44:11.929Z,1.1
2023-05-05T04:45:19.626Z,1.5
2023-05-05T04:46:29.338Z,1.7
2023-05-05T04:47:38.032Z,1
2023-05-05T04:48:46.730Z,1
2023-05-05T04:49:56.465Z,1.3
2023-05-05T04:51:04.090Z,1.5
2023-05-05T04:52:13.813Z,1.1
2023-05-05T04:53:23.459Z,1.7
2023-05-05T04:54:31.156Z,1
2023-05-05T04:55:40.871Z,0.9
2023-05-05T04:56:49.562Z,1.3
2023-05-05T04:57:57.238Z,1
2023-05-05T04:59:06.930Z,0.7
2023-05-05T05:00:16.603Z,0.7
2023-05-05T05:01:26.462Z,1.4
2023-05-05T05:02:36.218Z,1
2023-05-05T05:03:44.900Z,0.9
2023-05-05T05:04:54.589Z,0.8
2023-05-05T05:06:03.327Z,0.7
2023-05-05T05:07:11.996Z,1
2023-05-05T05:08:21.716Z,0.8
2023-05-05T05:09:31.386Z,0.8
2023-05-05T05:10:40.041Z,0.5
2023-05-05T05:11:48.743Z,1
2023-05-05T05:12:57.512Z,1.3
2023-05-05T05:14:07.195Z,1
2023-05-05T05:15:15.826Z,0.6
2023-05-05T05:16:24.508Z,0.9
2023-05-05T05:17:34.235Z,0.8
2023-05-05T05:18:42.915Z,1
2023-05-05T05:19:52.707Z,0.8
2023-05-05T05:21:02.388Z,1
2023-05-05T05:22:12.055Z,1.2
2023-05-05T05:23:21.757Z,1.1
2023-05-05T05:24:31.447Z,0.8
2023-05-05T05:25:41.095Z,1.1
2023-05-05T05:26:50.835Z,0.8
2023-05-05T05:28:09.276Z,0.7
2023-05-05T05:29:10.171Z,0.9
2023-05-05T05:30:19.825Z,0.5
2023-05-05T05:31:28.510Z,0.7
2023-05-05T05:32:38.325Z,0.9
2023-05-05T05:33:46.893Z,0.6
2023-05-05T05:34:54.607Z,0.8
2023-05-05T05:36:04.320Z,0.8
2023-05-05T05:37:12.018Z,0.7
2023-05-05T05:38:21.679Z,0.7
2023-05-05T05:39:31.333Z,0.7
2023-05-05T05:40:39.037Z,0.7
2023-05-05T05:41:48.763Z,0.8
2023-05-05T05:42:58.475Z,0.7
2023-05-05T05:44:07.159Z,0.6
2023-05-05T05:45:16.838Z,0.8
2023-05-05T05:46:25.610Z,0.6
2023-05-05T05:47:35.319Z,0.8
2023-05-05T05:48:44.972Z,0.8
2023-05-05T05:49:52.669Z,0.7
2023-05-05T05:51:01.373Z,0.7
2023-05-05T05:52:11.053Z,1.1
2023-05-05T05:53:18.778Z,0.8
2023-05-05T05:54:28.508Z,0.6
2023-05-05T05:55:36.222Z,0.7
2023-05-05T05:56:44.933Z,0.6
2023-05-05T05:57:54.599Z,0.9
2023-05-05T05:59:04.277Z,0.7
2023-05-05T06:00:13.974Z,0.6
2023-05-05T06:01:22.701Z,0.8
2023-05-05T06:02:30.416Z,0.9
2023-05-05T06:03:40.168Z,0.5
2023-05-05T06:04:47.838Z,1.2
2023-05-05T06:05:56.571Z,0.7
2023-05-05T06:07:05.236Z,0.7
2023-05-05T06:08:13.901Z,0.9
2023-05-05T06:09:23.578Z,0.9
2023-05-05T06:10:33.633Z,0.9
2023-05-05T06:11:42.015Z,0.5
2023-05-05T06:12:51.762Z,0.8
2023-05-05T06:14:01.395Z,0.6
2023-05-05T06:15:10.164Z,0.7
2023-05-05T06:16:17.826Z,0.7
2023-05-05T06:17:25.469Z,0.6
2023-05-05T06:18:35.155Z,0.7
2023-05-05T06:19:44.875Z,0.8
2023-05-05T06:20:53.637Z,0.6
2023-05-05T06:22:03.431Z,0.6
2023-05-05T06:23:12.104Z,0.6
2023-05-05T06:24:21.833Z,0.6
2023-05-05T06:25:30.507Z,0.7
2023-05-05T06:26:39.186Z,0.4
2023-05-05T06:27:48.883Z,0.7
2023-05-05T06:28:58.619Z,0.6
2023-05-05T06:30:08.489Z,0.8
2023-05-05T06:31:17.027Z,0.9
2023-05-05T06:32:24.697Z,0.7
2023-05-05T06:33:34.368Z,0.7
2023-05-05T06:34:42.106Z,0.6
2023-05-05T06:35:50.785Z,0.9
2023-05-05T06:37:00.434Z,0.5
2023-05-05T06:38:08.105Z,0.6
2023-05-05T06:39:18.812Z,0.5
2023-05-05T06:40:27.506Z,0.6
2023-05-05T06:41:35.216Z,0.5
2023-05-05T06:42:44.891Z,0.6
2023-05-05T06:43:53.605Z,0.5
2023-05-05T06:45:03.368Z,0.7
2023-05-05T06:46:12.963Z,0.5
2023-05-05T06:47:20.662Z,0.6
2023-05-05T06:48:30.369Z,0.4
2023-05-05T06:49:39.039Z,0.4
2023-05-05T06:50:46.739Z,0.4
2023-05-05T06:51:56.438Z,0.5
2023-05-05T06:53:05.143Z,0.9
2023-05-05T06:54:13.795Z,0.4
2023-05-05T06:55:23.490Z,0.5
2023-05-05T06:56:31.141Z,0.9
2023-05-05T06:57:40.897Z,0.5
2023-05-05T06:58:49.540Z,0.6
2023-05-05T06:59:58.228Z,0.6
2023-05-05T07:01:08.167Z,0.5
2023-05-05T07:02:17.643Z,0.4
2023-05-05T07:03:27.412Z,0.5
2023-05-05T07:04:36.045Z,0.5
2023-05-05T07:05:43.712Z,0.5
2023-05-05T07:06:52.477Z,0.5
2023-05-05T07:08:02.196Z,0.4
2023-05-05T07:09:09.896Z,0.8
2023-05-05T07:10:19.554Z,0.7
2023-05-05T07:11:28.483Z,0.7
2023-05-05T07:12:37.037Z,0.8
2023-05-05T07:13:46.706Z,0.5
2023-05-05T07:14:54.425Z,0.6
2023-05-05T07:16:04.156Z,0.7
2023-05-05T07:17:13.934Z,0.8
2023-05-05T07:18:23.498Z,0.5
2023-05-05T07:19:33.167Z,0.6
2023-05-05T07:20:40.854Z,0.5
2023-05-05T07:21:49.863Z,0.3
2023-05-05T07:22:59.507Z,0.5
2023-05-05T07:24:07.185Z,0.7
2023-05-05T07:25:15.865Z,0.5
2023-05-05T07:26:24.615Z,0.3
2023-05-05T07:27:32.343Z,0.5
2023-05-05T07:28:42.015Z,0.6
2023-05-05T07:29:49.665Z,0.4
2023-05-05T07:30:58.356Z,0.4
2023-05-05T07:32:08.080Z,0.4
2023-05-05T07:33:15.869Z,0.4
2023-05-05T07:34:25.373Z,0.5
2023-05-05T07:35:35.093Z,0.5
2023-05-05T07:36:43.870Z,0.3
2023-05-05T07:37:53.526Z,0.5
2023-05-05T07:39:01.190Z,0.5
2023-05-05T07:40:10.234Z,0.5
2023-05-05T07:41:19.542Z,0.6
2023-05-05T07:42:27.257Z,0.9
2023-05-05T07:43:37.722Z,1.1
2023-05-05T07:44:45.673Z,0.5
2023-05-05T07:45:53.366Z,0.8
2023-05-05T07:47:02.014Z,0.6
2023-05-05T07:48:10.797Z,0.7
2023-05-05T07:49:20.526Z,0.3
2023-05-05T07:50:30.119Z,0.8
2023-05-05T07:51:40.151Z,0.5
2023-05-05T07:52:53.866Z,0.6
2023-05-05T07:53:59.513Z,0.3
2023-05-05T07:55:07.270Z,0.5
2023-05-05T07:56:16.943Z,0.5
2023-05-05T07:57:25.595Z,0.5
2023-05-05T07:58:34.303Z,0.3
2023-05-05T07:59:43.986Z,0.6
2023-05-05T08:00:53.668Z,0.4
2023-05-05T08:02:03.381Z,0.5
2023-05-05T08:03:12.377Z,0.2
2023-05-05T08:04:20.788Z,0.6
2023-05-05T08:05:30.447Z,0.4
2023-05-05T08:06:40.119Z,0.2
2023-05-05T08:07:48.903Z,0.4
2023-05-05T08:08:56.614Z,0.4
2023-05-05T08:10:05.304Z,0.4
2023-05-05T08:11:14.981Z,0.5
2023-05-05T08:12:23.766Z,0.5
2023-05-05T08:13:32.463Z,0.5
2023-05-05T08:14:41.174Z,0.4
2023-05-05T08:15:48.936Z,0.3
2023-05-05T08:16:58.695Z,0.8
2023-05-05T08:18:08.404Z,0.4
2023-05-05T08:19:28.028Z,0.4
2023-05-05T08:20:28.782Z,0.3
2023-05-05T08:21:37.577Z,0.1
2023-05-05T08:22:47.171Z,0.3
2023-05-05T08:23:56.905Z,0.4
2023-05-05T08:25:05.645Z,0.3
2023-05-05T08:26:15.253Z,0.6
2023-05-05T08:27:23.001Z,0.5
2023-05-05T08:28:31.649Z,0.3
2023-05-05T08:29:41.305Z,0.4
2023-05-05T08:30:49.968Z,0.4
2023-05-05T08:31:59.713Z,0.3
2023-05-05T08:33:07.372Z,0.6
2023-05-05T08:34:17.131Z,0.2
2023-05-05T08:35:26.824Z,0.4
2023-05-05T08:36:34.491Z,0.4
2023-05-05T08:37:42.289Z,0.5
2023-05-05T08:38:51.898Z,0.5
2023-05-05T08:39:59.591Z,0.3
2023-05-05T08:41:09.304Z,0.5
2023-05-05T08:42:29.233Z,0.5
2023-05-05T08:43:28.612Z,0.7
2023-05-05T08:44:38.339Z,0.4
2023-05-05T08:45:46.095Z,0.3
2023-05-05T08:46:55.786Z,0.2
2023-05-05T08:48:05.567Z,0.4
2023-05-05T08:49:14.120Z,0.4
2023-05-05T08:50:23.872Z,0.2
2023-05-05T08:51:33.538Z,1
2023-05-05T08:52:42.230Z,0.6
2023-05-05T08:53:52.221Z,0.5
2023-05-05T08:55:01.717Z,0.2
2023-05-05T08:56:10.430Z,0.5
2023-05-05T08:57:20.128Z,0.3
2023-05-05T08:58:29.138Z,0.7
2023-05-05T08:59:38.540Z,0.5
2023-05-05T09:00:47.209Z,0.7
2023-05-05T09:01:55.878Z,0.3
2023-05-05T09:03:05.563Z,0.4
2023-05-05T09:04:13.180Z,0.6
2023-05-05T09:05:22.876Z,0.4
2023-05-05T09:06:32.564Z,0.3
2023-05-05T09:07:40.249Z,0.4
2023-05-05T09:08:49.939Z,0.4
2023-05-05T09:09:59.797Z,0.3
2023-05-05T09:11:09.374Z,0.3
2023-05-05T09:12:19.050Z,0.3
2023-05-05T09:13:26.758Z,0.3
2023-05-05T09:14:36.450Z,0.7
2023-05-05T09:15:46.136Z,0.5
2023-05-05T09:16:53.863Z,0.4
2023-05-05T09:18:02.754Z,0.3
2023-05-05T09:19:12.449Z,0.3
2023-05-05T09:20:22.184Z,0.4
2023-05-05T09:21:31.836Z,0.3
2023-05-05T09:22:41.553Z,0.4
2023-05-05T09:23:51.230Z,0.6
2023-05-05T09:25:00.875Z,0.4
2023-05-05T09:26:08.676Z,0.5
2023-05-05T09:27:18.261Z,0.6
2023-05-05T09:28:25.984Z,0.4
2023-05-05T09:29:33.649Z,0.8
2023-05-05T09:30:43.340Z,0.4
2023-05-05T09:31:51.048Z,0.9
2023-05-05T09:32:59.745Z,0.9
2023-05-05T09:34:09.440Z,0.7
2023-05-05T09:35:17.098Z,0.6
2023-05-05T09:36:25.790Z,0.8
2023-05-05T09:37:35.478Z,0.7
2023-05-05T09:38:44.146Z,0.8
2023-05-05T09:39:54.881Z,0.4
2023-05-05T09:41:03.551Z,0.7
2023-05-05T09:42:13.685Z,0.6
2023-05-05T09:43:22.935Z,0.5
2023-05-05T09:44:30.616Z,0.7
2023-05-05T09:45:40.328Z,0.7
2023-05-05T09:46:49.202Z,0.8
2023-05-05T09:48:00.075Z,0.7
2023-05-05T09:49:09.587Z,0.8
2023-05-05T09:50:17.337Z,118.4
2023-05-05T09:51:27.044Z,865.79998
2023-05-05T09:52:36.702Z,999.90002
2023-05-05T09:53:44.385Z,999.90002
2023-05-05T09:54:54.143Z,999.90002
2023-05-05T09:56:03.847Z,999.90002
2023-05-05T09:57:12.484Z,999.90002
2023-05-05T09:58:22.426Z,999.90002
2023-05-05T09:59:31.924Z,352.39999
2023-05-05T10:00:40.661Z,564.90002
2023-05-05T10:01:50.382Z,440.5
2023-05-05T10:02:59.109Z,999.90002
2023-05-05T10:04:07.848Z,500.1
2023-05-05T10:05:16.588Z,728.79998
2023-05-05T10:06:24.289Z,445.39999
2023-05-05T10:07:34.038Z,999.90002
2023-05-05T10:08:41.756Z,134
2023-05-05T10:09:50.466Z,267.6
2023-05-05T10:11:00.273Z,441.79998
2023-05-05T10:12:09.115Z,714.20001
2023-05-05T10:13:18.834Z,111.4
2023-05-05T10:14:28.627Z,514.5
2023-05-05T10:15:38.229Z,477.6
2023-05-05T10:16:47.933Z,510.79998
2023-05-05T10:18:06.485Z,714.40002
2023-05-05T10:19:08.295Z,455.29998
2023-05-05T10:20:16.014Z,758.90002
2023-05-05T10:21:24.751Z,622
2023-05-05T10:22:34.484Z,676.90002
2023-05-05T10:23:44.205Z,917.90002
2023-05-05T10:24:53.916Z,459.70001
2023-05-05T10:26:02.644Z,0.4
2023-05-05T10:27:12.602Z,0.4
2023-05-05T10:28:22.054Z,0.2
2023-05-05T10:29:31.942Z,0.4
2023-05-05T10:30:41.522Z,0.3
2023-05-05T10:31:51.292Z,0.3
2023-05-05T10:33:13.490Z,0.5
2023-05-05T10:34:11.894Z,0.3
2023-05-05T10:35:20.495Z,0.3
2023-05-05T10:36:28.952Z,0.3
2023-05-05T10:37:37.587Z,0.1
2023-05-05T10:38:45.271Z,0.5
2023-05-05T10:39:55.019Z,0.5
2023-05-05T10:41:04.732Z,0.4
2023-05-05T10:42:12.393Z,0.4
2023-05-05T10:43:22.056Z,0.4
2023-05-05T10:44:31.838Z,0.3
2023-05-05T10:45:39.693Z,0.3
2023-05-05T10:46:49.271Z,0.2
2023-05-05T10:47:56.987Z,0.4
2023-05-05T10:49:05.662Z,0.2
2023-05-05T10:50:15.358Z,0.3
2023-05-05T10:51:35.768Z,0.5
2023-05-05T10:52:35.817Z,0.3
2023-05-05T10:53:45.807Z,0.4
2023-05-05T10:54:53.482Z,0.3
2023-05-05T10:56:03.188Z,0.3
2023-05-05T10:57:11.944Z,0.4
2023-05-05T10:58:20.720Z,0.4
2023-05-05T10:59:30.385Z,0.3
2023-05-05T11:00:39.085Z,0.3
2023-05-05T11:01:48.870Z,0.6
2023-05-05T11:02:58.454Z,0.4
2023-05-05T11:04:08.219Z,0.6
2023-05-05T11:05:18.053Z,0.4
2023-05-05T11:06:25.479Z,0.3
2023-05-05T11:07:34.234Z,0.3
2023-05-05T11:08:43.922Z,0.3
2023-05-05T11:09:51.641Z,0.4
2023-05-05T11:11:01.297Z,0.4
2023-05-05T11:12:10.028Z,0.3
2023-05-05T11:13:17.827Z,0.4
2023-05-05T11:14:27.454Z,0.6
2023-05-05T11:15:35.136Z,0.3
2023-05-05T11:16:44.971Z,0.2
2023-05-05T11:17:54.670Z,0.3
2023-05-05T11:19:04.254Z,0.5
2023-05-05T11:20:13.955Z,0.2
2023-05-05T11:21:23.664Z,0.4
2023-05-05T11:22:32.377Z,0.4
2023-05-05T11:23:42.057Z,0.4
2023-05-05T11:24:49.723Z,0.2
2023-05-05T11:25:59.435Z,0.4
2023-05-05T11:27:09.153Z,0.4
2023-05-05T11:28:16.941Z,0.3
2023-05-05T11:29:26.670Z,0.3
2023-05-05T11:30:35.379Z,0.5
2023-05-05T11:31:44.142Z,0.5
2023-05-05T11:32:53.840Z,0.4
2023-05-05T11:34:02.652Z,0.5
2023-05-05T11:35:12.311Z,0.3
2023-05-05T11:36:22.044Z,0.4
2023-05-05T11:37:30.744Z,0.3
2023-05-05T11:38:40.431Z,0.4
2023-05-05T11:39:49.156Z,0.4
2023-05-05T11:40:56.856Z,0.4
2023-05-05T11:42:10.339Z,0.3
2023-05-05T11:43:17.258Z,0.6
2023-05-05T11:44:25.915Z,0.2
2023-05-05T11:45:35.637Z,0.2
2023-05-05T11:46:43.364Z,0.3
2023-05-05T11:47:53.096Z,0.4
2023-05-05T11:49:01.729Z,0.5
2023-05-05T11:50:10.640Z,0.3
2023-05-05T11:51:20.106Z,0.5
2023-05-05T11:52:27.766Z,0.4
2023-05-05T11:53:36.434Z,0.5
2023-05-05T11:54:46.120Z,0.4
2023-05-05T11:55:54.829Z,0.6
2023-05-05T11:57:04.527Z,0.4
2023-05-05T11:58:13.196Z,0.4
2023-05-05T11:59:21.960Z,0.4
2023-05-05T12:00:31.705Z,0.9
2023-05-05T12:01:39.466Z,0.3
2023-05-05T12:02:49.225Z,0.6
2023-05-05T12:03:58.985Z,0.4
2023-05-05T12:05:07.865Z,0.4
2023-05-05T12:06:17.652Z,0.4
2023-05-05T12:07:27.241Z,0.5
2023-05-05T12:08:34.927Z,0.5
2023-05-05T12:09:43.631Z,0.3
2023-05-05T12:10:51.328Z,0.2
2023-05-05T12:12:00.035Z,0.5
2023-05-05T12:13:09.750Z,0.4
2023-05-05T12:14:16.532Z,0.4
2023-05-05T12:15:26.136Z,0.4
2023-05-05T12:16:34.975Z,0.5
2023-05-05T12:17:44.794Z,0.4
2023-05-05T12:18:53.401Z,0.4
2023-05-05T12:20:01.072Z,0.2
2023-05-05T12:21:10.909Z,0.3
2023-05-05T12:22:18.682Z,0.4
2023-05-05T12:23:28.407Z,0.2
2023-05-05T12:24:38.100Z,0.4
2023-05-05T12:25:46.763Z,0.4
2023-05-05T12:26:56.497Z,0.2
2023-05-05T12:28:05.196Z,0.4
2023-05-05T12:29:12.875Z,0.4
2023-05-05T12:30:22.544Z,0.3
2023-05-05T12:31:31.217Z,0.4
2023-05-05T12:32:41.062Z,0.4
2023-05-05T12:33:50.801Z,0.4
2023-05-05T12:34:58.474Z,0.5
2023-05-05T12:36:08.142Z,0.7
2023-05-05T12:37:16.863Z,0.4
2023-05-05T12:38:24.641Z,0.6
2023-05-05T12:39:34.425Z,0.5
2023-05-05T12:40:43.133Z,0.3
2023-05-05T12:41:52.955Z,0.4
2023-05-05T12:43:02.629Z,0.3
2023-05-05T12:44:10.316Z,0.5
2023-05-05T12:45:19.971Z,0.5
2023-05-05T12:46:28.683Z,0.5
2023-05-05T12:47:37.378Z,0.5
2023-05-05T12:48:48.254Z,0.5
2023-05-05T12:49:56.782Z,0.4
2023-05-05T12:51:05.445Z,0.4
2023-05-05T12:52:15.157Z,0.5
2023-05-05T12:53:22.892Z,0.4
2023-05-05T12:54:32.734Z,0.3
2023-05-05T12:55:42.302Z,0.3
2023-05-05T12:56:50.020Z,0.3
2023-05-05T12:57:58.665Z,0.6
2023-05-05T12:59:06.382Z,0.5
2023-05-05T13:00:16.055Z,0.5
2023-05-05T13:01:25.802Z,0.5
2023-05-05T13:02:34.884Z,0.8
2023-05-05T13:03:43.413Z,0.5
2023-05-05T13:04:52.080Z,0.5
2023-05-05T13:06:00.780Z,0.4
2023-05-05T13:07:10.568Z,0.3
2023-05-05T13:08:19.243Z,0.3
2023-05-05T13:09:27.877Z,0.6
2023-05-05T13:10:37.716Z,0.6
2023-05-05T13:11:47.379Z,0.5
2023-05-05T13:12:57.108Z,0.4
2023-05-05T13:14:05.726Z,0.4
2023-05-05T13:15:16.130Z,0.5
2023-05-05T13:16:25.910Z,0.5
2023-05-05T13:17:34.834Z,0.6
2023-05-05T13:18:43.185Z,0.4
2023-05-05T13:19:52.900Z,0.5
2023-05-05T13:21:00.561Z,0.5
2023-05-05T13:22:10.356Z,0.4
2023-05-05T13:23:20.014Z,0.3
2023-05-05T13:24:38.488Z,0.2
2023-05-05T13:25:40.471Z,0.6
2023-05-05T13:26:50.176Z,0.4
2023-05-05T13:27:59.869Z,0.6
2023-05-05T13:29:09.556Z,0.2
2023-05-05T13:30:17.294Z,0.5
2023-05-05T13:31:27.015Z,0.3
2023-05-05T13:32:35.789Z,0.3
2023-05-05T13:33:44.417Z,0.3
2023-05-05T13:34:54.162Z,0.6
2023-05-05T13:36:01.807Z,0.5
2023-05-05T13:37:10.473Z,0.4
2023-05-05T13:38:20.170Z,0.5
2023-05-05T13:39:28.889Z,0.3
2023-05-05T13:40:38.624Z,0.3
2023-05-05T13:41:47.360Z,0.6
2023-05-05T13:42:57.166Z,0.4
2023-05-05T13:44:06.801Z,0.6
2023-05-05T13:45:14.515Z,0.6
2023-05-05T13:46:23.300Z,0.6
2023-05-05T13:47:32.989Z,0.3
2023-05-05T13:48:39.746Z,0.4
2023-05-05T13:49:49.492Z,0.5
2023-05-05T13:50:59.148Z,0.4
2023-05-05T13:52:06.840Z,0.3
2023-05-05T13:53:16.541Z,0.3
2023-05-05T13:54:25.306Z,0.4
2023-05-05T13:55:35.012Z,0.4
2023-05-05T13:56:44.699Z,0.3
2023-05-05T13:57:54.416Z,0.5
2023-05-05T13:59:04.233Z,0.5
2023-05-05T14:00:12.817Z,0.7
2023-05-05T14:01:21.575Z,0.3
2023-05-05T14:02:31.216Z,0.5
2023-05-05T14:03:38.916Z,0.5
2023-05-05T14:04:48.598Z,0.4
2023-05-05T14:05:58.242Z,0.5
2023-05-05T14:07:07.081Z,0.6
2023-05-05T14:08:16.795Z,0.6
2023-05-05T14:09:25.470Z,0.7
2023-05-05T14:10:33.142Z,0.6
2023-05-05T14:11:42.901Z,0.5
2023-05-05T14:12:51.637Z,0.2
2023-05-05T14:14:01.298Z,0.3
2023-05-05T14:15:11.442Z,0.4
2023-05-05T14:16:19.800Z,0.4
2023-05-05T14:17:29.487Z,0.7
2023-05-05T14:18:39.167Z,0.3
2023-05-05T14:19:48.847Z,0.4
2023-05-05T14:20:57.571Z,0.3
2023-05-05T14:22:05.261Z,0.3
2023-05-05T14:23:14.927Z,0.4
2023-05-05T14:24:22.672Z,0.5
2023-05-05T14:25:31.352Z,0.5
2023-05-05T14:26:41.111Z,0.5
2023-05-05T14:27:48.841Z,0.6
2023-05-05T14:28:58.565Z,0.3
2023-05-05T14:30:07.242Z,0.3
2023-05-05T14:31:17.131Z,0.4
2023-05-05T14:32:27.622Z,0.6
2023-05-05T14:33:36.366Z,0.4
2023-05-05T14:34:47.195Z,0.4
2023-05-05T14:35:56.814Z,0.7
2023-05-05T14:37:04.490Z,0.4
2023-05-05T14:38:14.202Z,0.4
2023-05-05T14:39:22.812Z,0.6
2023-05-05T14:40:32.548Z,0.3
2023-05-05T14:41:42.239Z,0.5
2023-05-05T14:42:49.930Z,0.3
2023-05-05T14:43:58.637Z,0.4
2023-05-05T14:45:08.620Z,0.5
2023-05-05T14:46:17.188Z,0.5
2023-05-05T14:47:26.864Z,0.3
2023-05-05T14:48:36.496Z,0.5
2023-05-05T14:49:45.190Z,0.3
2023-05-05T14:50:54.899Z,0.5
2023-05-05T14:52:04.667Z,0.8
2023-05-05T14:53:13.387Z,0.4
2023-05-05T14:54:28.241Z,0.7
2023-05-05T14:55:32.820Z,0.3
2023-05-05T14:56:42.488Z,0.3
2023-05-05T14:57:52.223Z,0.5
2023-05-05T14:59:01.002Z,0.4
2023-05-05T15:00:10.752Z,0.3
2023-05-05T15:01:19.424Z,0.5
2023-05-05T15:02:28.161Z,0.3
2023-05-05T15:03:37.962Z,0.3
2023-05-05T15:04:48.098Z,0.5
2023-05-05T15:05:57.168Z,0.3
2023-05-05T15:07:06.839Z,0.3
2023-05-05T15:08:15.539Z,0.4
2023-05-05T15:09:25.233Z,0.3
2023-05-05T15:10:33.961Z,0.4
2023-05-05T15:11:42.588Z,0.4
2023-05-05T15:12:52.257Z,0.5
2023-05-05T15:14:01.034Z,0.4
2023-05-05T15:15:10.908Z,0.4
2023-05-05T15:16:20.483Z,0.4
2023-05-05T15:17:28.158Z,0.4
2023-05-05T15:18:37.895Z,0.4
2023-05-05T15:19:46.723Z,0.5
2023-05-05T15:20:55.254Z,0.4
2023-05-05T15:22:04.907Z,0.4
2023-05-05T15:23:13.624Z,0.4
2023-05-05T15:24:23.310Z,0.4
2023-05-05T15:25:31.974Z,0.5
2023-05-05T15:26:39.690Z,0.4
2023-05-05T15:27:49.366Z,0.4
2023-05-05T15:28:58.063Z,0.9
2023-05-05T15:30:06.751Z,0.5
2023-05-05T15:31:16.481Z,0.3
2023-05-05T15:32:25.191Z,0.3
2023-05-05T15:33:34.935Z,0.4
2023-05-05T15:34:43.598Z,0.4
2023-05-05T15:35:52.362Z,0.5
2023-05-05T15:37:01.080Z,0.5
2023-05-05T15:38:09.765Z,0.4
2023-05-05T15:39:18.427Z,0.5
2023-05-05T15:40:28.169Z,0.5
2023-05-05T15:41:35.974Z,0.4
2023-05-05T15:42:45.858Z,0.7
2023-05-05T15:43:54.511Z,0.3
2023-05-05T15:45:02.456Z,0.6
2023-05-05T15:46:12.215Z,0.4
2023-05-05T15:47:20.962Z,0.5
2023-05-05T15:48:29.625Z,0.4
2023-05-05T15:49:39.301Z,0.4